sensor_id;sensor_type;location;lat;lon;timestamp;P1;durP1;ratioP1;P2;durP2;ratioP2
73850;SDS011;62190;51.548;5.688;2023-03-03T00:02:07;91.82;;;36.90;;
73850;SDS011;62190;51.548;5.688;2023-03-03T00:04:36;89.30;;;37.30;;
73850;SDS011;62190;51.548;5.688;2023-03-03T00:07:04;89.87;;;35.33;;
73850;SDS011;62190;51.548;5.688;2023-03-03T00:09:31;91.08;;;36.93;;
73850;SDS011;62190;51.548;5.688;2023-03-03T00:11:59;85.72;;;34.25;;
73850;SDS011;62190;51.548;5.688;2023-03-03T00:14:30;94.83;;;38.90;;
73850;SDS011;62190;51.548;5.688;2023-03-03T00:17:00;88.65;;;35.63;;
73850;SDS011;62190;51.548;5.688;2023-03-03T00:19:29;91.53;;;36.98;;
73850;SDS011;62190;51.548;5.688;2023-03-03T00:21:56;80.97;;;32.73;;
73850;SDS011;62190;51.548;5.688;2023-03-03T00:26:55;98.00;;;37.10;;
73850;SDS011;62190;51.548;5.688;2023-03-03T00:29:26;86.25;;;36.17;;
73850;SDS011;62190;51.548;5.688;2023-03-03T00:32:08;96.05;;;39.40;;
73850;SDS011;62190;51.548;5.688;2023-03-03T00:34:30;88.37;;;33.48;;
73850;SDS011;62190;51.548;5.688;2023-03-03T00:37:00;92.88;;;34.08;;
73850;SDS011;62190;51.548;5.688;2023-03-03T00:39:35;87.88;;;34.65;;
73850;SDS011;62190;51.548;5.688;2023-03-03T00:42:18;88.55;;;36.45;;
73850;SDS011;62190;51.548;5.688;2023-03-03T00:44:46;72.65;;;28.12;;
73850;SDS011;62190;51.548;5.688;2023-03-03T00:47:22;77.95;;;30.52;;
73850;SDS011;62190;51.548;5.688;2023-03-03T00:55:29;85.15;;;34.30;;
73850;SDS011;62190;51.548;5.688;2023-03-03T00:57:59;80.50;;;31.25;;
73850;SDS011;62190;51.548;5.688;2023-03-03T01:00:26;76.57;;;30.80;;
73850;SDS011;62190;51.548;5.688;2023-03-03T01:02:54;77.82;;;30.35;;
73850;SDS011;62190;51.548;5.688;2023-03-03T01:05:23;80.77;;;30.52;;
73850;SDS011;62190;51.548;5.688;2023-03-03T01:07:52;70.40;;;27.95;;
73850;SDS011;62190;51.548;5.688;2023-03-03T01:10:19;68.15;;;26.33;;
73850;SDS011;62190;51.548;5.688;2023-03-03T01:12:48;63.23;;;24.00;;
73850;SDS011;62190;51.548;5.688;2023-03-03T01:15:17;65.67;;;24.72;;
73850;SDS011;62190;51.548;5.688;2023-03-03T01:17:46;70.65;;;27.30;;
73850;SDS011;62190;51.548;5.688;2023-03-03T01:20:13;73.60;;;29.12;;
73850;SDS011;62190;51.548;5.688;2023-03-03T01:22:41;76.57;;;29.45;;
73850;SDS011;62190;51.548;5.688;2023-03-03T01:25:10;76.55;;;30.32;;
73850;SDS011;62190;51.548;5.688;2023-03-03T01:27:38;71.92;;;28.30;;
73850;SDS011;62190;51.548;5.688;2023-03-03T01:30:06;70.50;;;27.70;;
73850;SDS011;62190;51.548;5.688;2023-03-03T01:32:34;82.95;;;31.82;;
73850;SDS011;62190;51.548;5.688;2023-03-03T01:35:01;78.20;;;29.82;;
73850;SDS011;62190;51.548;5.688;2023-03-03T01:37:29;70.05;;;28.57;;
73850;SDS011;62190;51.548;5.688;2023-03-03T01:39:56;72.30;;;27.30;;
73850;SDS011;62190;51.548;5.688;2023-03-03T01:42:27;59.15;;;25.40;;
73850;SDS011;62190;51.548;5.688;2023-03-03T01:47:45;62.95;;;25.75;;
73850;SDS011;62190;51.548;5.688;2023-03-03T01:53:18;69.03;;;28.10;;
73850;SDS011;62190;51.548;5.688;2023-03-03T01:55:48;75.25;;;28.55;;
73850;SDS011;62190;51.548;5.688;2023-03-03T01:58:19;69.05;;;25.77;;
73850;SDS011;62190;51.548;5.688;2023-03-03T02:00:50;79.22;;;30.75;;
73850;SDS011;62190;51.548;5.688;2023-03-03T02:03:25;73.37;;;29.52;;
73850;SDS011;62190;51.548;5.688;2023-03-03T02:05:54;70.52;;;27.98;;
73850;SDS011;62190;51.548;5.688;2023-03-03T02:08:27;72.22;;;28.15;;
73850;SDS011;62190;51.548;5.688;2023-03-03T02:11:01;61.88;;;26.33;;
73850;SDS011;62190;51.548;5.688;2023-03-03T02:13:30;63.48;;;22.35;;
73850;SDS011;62190;51.548;5.688;2023-03-03T02:16:01;68.80;;;27.00;;
73850;SDS011;62190;51.548;5.688;2023-03-03T02:18:31;69.97;;;26.10;;
73850;SDS011;62190;51.548;5.688;2023-03-03T02:21:02;79.85;;;28.85;;
73850;SDS011;62190;51.548;5.688;2023-03-03T02:23:49;73.22;;;27.15;;
73850;SDS011;62190;51.548;5.688;2023-03-03T02:26:23;71.40;;;29.60;;
73850;SDS011;62190;51.548;5.688;2023-03-03T02:28:55;79.03;;;30.50;;
73850;SDS011;62190;51.548;5.688;2023-03-03T02:31:24;83.75;;;29.80;;
73850;SDS011;62190;51.548;5.688;2023-03-03T02:33:53;69.07;;;27.37;;
73850;SDS011;62190;51.548;5.688;2023-03-03T02:36:23;64.53;;;24.82;;
73850;SDS011;62190;51.548;5.688;2023-03-03T02:38:58;69.20;;;27.62;;
73850;SDS011;62190;51.548;5.688;2023-03-03T02:41:59;68.25;;;26.40;;
73850;SDS011;62190;51.548;5.688;2023-03-03T02:44:32;58.95;;;23.70;;
73850;SDS011;62190;51.548;5.688;2023-03-03T02:47:00;70.55;;;25.40;;
73850;SDS011;62190;51.548;5.688;2023-03-03T02:49:28;64.80;;;23.32;;
73850;SDS011;62190;51.548;5.688;2023-03-03T02:51:57;73.70;;;26.42;;
73850;SDS011;62190;51.548;5.688;2023-03-03T02:54:26;71.85;;;26.55;;
73850;SDS011;62190;51.548;5.688;2023-03-03T02:56:59;73.17;;;28.20;;
73850;SDS011;62190;51.548;5.688;2023-03-03T02:59:26;63.63;;;24.63;;
73850;SDS011;62190;51.548;5.688;2023-03-03T03:01:58;73.33;;;26.27;;
73850;SDS011;62190;51.548;5.688;2023-03-03T03:04:25;65.37;;;24.43;;
73850;SDS011;62190;51.548;5.688;2023-03-03T03:06:53;69.75;;;28.95;;
73850;SDS011;62190;51.548;5.688;2023-03-03T03:09:21;66.62;;;24.80;;
73850;SDS011;62190;51.548;5.688;2023-03-03T03:11:50;65.50;;;22.35;;
73850;SDS011;62190;51.548;5.688;2023-03-03T03:14:19;62.88;;;24.47;;
73850;SDS011;62190;51.548;5.688;2023-03-03T03:16:48;71.10;;;24.77;;
73850;SDS011;62190;51.548;5.688;2023-03-03T03:19:17;71.80;;;24.60;;
73850;SDS011;62190;51.548;5.688;2023-03-03T03:21:44;60.10;;;23.20;;
73850;SDS011;62190;51.548;5.688;2023-03-03T03:24:12;69.77;;;24.75;;
73850;SDS011;62190;51.548;5.688;2023-03-03T03:26:39;64.35;;;25.15;;
73850;SDS011;62190;51.548;5.688;2023-03-03T03:29:07;71.55;;;24.67;;
73850;SDS011;62190;51.548;5.688;2023-03-03T03:31:35;76.07;;;25.97;;
73850;SDS011;62190;51.548;5.688;2023-03-03T03:34:06;74.40;;;26.87;;
73850;SDS011;62190;51.548;5.688;2023-03-03T03:36:34;73.25;;;25.80;;
73850;SDS011;62190;51.548;5.688;2023-03-03T03:39:06;67.47;;;27.05;;
73850;SDS011;62190;51.548;5.688;2023-03-03T03:41:33;77.20;;;26.62;;
73850;SDS011;62190;51.548;5.688;2023-03-03T03:44:03;73.72;;;26.87;;
73850;SDS011;62190;51.548;5.688;2023-03-03T03:46:31;74.85;;;29.12;;
73850;SDS011;62190;51.548;5.688;2023-03-03T03:49:00;69.35;;;24.40;;
73850;SDS011;62190;51.548;5.688;2023-03-03T03:51:27;65.75;;;24.18;;
73850;SDS011;62190;51.548;5.688;2023-03-03T03:53:56;62.70;;;26.65;;
73850;SDS011;62190;51.548;5.688;2023-03-03T03:56:26;67.42;;;24.82;;
73850;SDS011;62190;51.548;5.688;2023-03-03T03:58:54;63.63;;;24.60;;
73850;SDS011;62190;51.548;5.688;2023-03-03T04:01:23;58.63;;;24.18;;
73850;SDS011;62190;51.548;5.688;2023-03-03T04:03:51;53.05;;;18.75;;
73850;SDS011;62190;51.548;5.688;2023-03-03T04:06:18;63.75;;;23.90;;
73850;SDS011;62190;51.548;5.688;2023-03-03T04:08:46;59.35;;;19.70;;
73850;SDS011;62190;51.548;5.688;2023-03-03T04:11:14;66.42;;;23.42;;
73850;SDS011;62190;51.548;5.688;2023-03-03T04:13:42;56.90;;;22.35;;
73850;SDS011;62190;51.548;5.688;2023-03-03T04:16:09;56.10;;;19.45;;
73850;SDS011;62190;51.548;5.688;2023-03-03T04:18:38;58.45;;;22.27;;
73850;SDS011;62190;51.548;5.688;2023-03-03T04:21:15;61.55;;;22.87;;
73850;SDS011;62190;51.548;5.688;2023-03-03T04:23:40;56.28;;;22.93;;
73850;SDS011;62190;51.548;5.688;2023-03-03T04:26:09;51.05;;;18.65;;
73850;SDS011;62190;51.548;5.688;2023-03-03T04:28:37;50.83;;;19.65;;
73850;SDS011;62190;51.548;5.688;2023-03-03T04:31:05;63.08;;;23.83;;
73850;SDS011;62190;51.548;5.688;2023-03-03T04:33:33;63.28;;;23.02;;
73850;SDS011;62190;51.548;5.688;2023-03-03T04:36:00;62.05;;;22.98;;
73850;SDS011;62190;51.548;5.688;2023-03-03T04:38:27;61.90;;;23.15;;
73850;SDS011;62190;51.548;5.688;2023-03-03T04:40:56;60.75;;;22.22;;
73850;SDS011;62190;51.548;5.688;2023-03-03T04:43:23;52.73;;;20.97;;
73850;SDS011;62190;51.548;5.688;2023-03-03T04:45:53;50.63;;;20.23;;
73850;SDS011;62190;51.548;5.688;2023-03-03T04:48:22;56.48;;;20.45;;
73850;SDS011;62190;51.548;5.688;2023-03-03T04:50:49;58.70;;;20.48;;
73850;SDS011;62190;51.548;5.688;2023-03-03T04:53:20;56.75;;;19.67;;
73850;SDS011;62190;51.548;5.688;2023-03-03T04:55:49;52.55;;;19.40;;
73850;SDS011;62190;51.548;5.688;2023-03-03T04:58:18;56.10;;;20.08;;
73850;SDS011;62190;51.548;5.688;2023-03-03T05:00:46;52.85;;;17.37;;
73850;SDS011;62190;51.548;5.688;2023-03-03T05:03:17;49.40;;;17.07;;
73850;SDS011;62190;51.548;5.688;2023-03-03T05:05:46;55.98;;;20.75;;
73850;SDS011;62190;51.548;5.688;2023-03-03T05:08:15;59.48;;;19.70;;
73850;SDS011;62190;51.548;5.688;2023-03-03T05:10:43;51.85;;;19.02;;
73850;SDS011;62190;51.548;5.688;2023-03-03T05:13:11;61.33;;;21.35;;
73850;SDS011;62190;51.548;5.688;2023-03-03T05:15:40;54.00;;;21.40;;
73850;SDS011;62190;51.548;5.688;2023-03-03T05:18:08;51.73;;;18.48;;
73850;SDS011;62190;51.548;5.688;2023-03-03T05:20:38;55.85;;;19.52;;
73850;SDS011;62190;51.548;5.688;2023-03-03T05:23:06;50.17;;;17.60;;
73850;SDS011;62190;51.548;5.688;2023-03-03T05:25:33;49.25;;;17.82;;
73850;SDS011;62190;51.548;5.688;2023-03-03T05:28:02;56.60;;;19.98;;
73850;SDS011;62190;51.548;5.688;2023-03-03T05:30:31;54.55;;;19.92;;
73850;SDS011;62190;51.548;5.688;2023-03-03T05:33:02;59.00;;;21.40;;
73850;SDS011;62190;51.548;5.688;2023-03-03T05:35:30;48.90;;;18.00;;
73850;SDS011;62190;51.548;5.688;2023-03-03T05:37:57;59.85;;;20.95;;
73850;SDS011;62190;51.548;5.688;2023-03-03T05:40:25;58.58;;;20.48;;
73850;SDS011;62190;51.548;5.688;2023-03-03T05:42:53;55.20;;;19.50;;
73850;SDS011;62190;51.548;5.688;2023-03-03T05:45:20;56.25;;;21.82;;
73850;SDS011;62190;51.548;5.688;2023-03-03T05:47:50;50.50;;;18.42;;
73850;SDS011;62190;51.548;5.688;2023-03-03T05:50:18;50.35;;;19.85;;
73850;SDS011;62190;51.548;5.688;2023-03-03T05:52:47;47.75;;;18.62;;
73850;SDS011;62190;51.548;5.688;2023-03-03T05:55:15;53.35;;;19.07;;
73850;SDS011;62190;51.548;5.688;2023-03-03T05:57:43;53.25;;;19.87;;
73850;SDS011;62190;51.548;5.688;2023-03-03T06:00:11;52.80;;;18.73;;
73850;SDS011;62190;51.548;5.688;2023-03-03T06:02:40;59.42;;;22.67;;
73850;SDS011;62190;51.548;5.688;2023-03-03T06:05:08;58.52;;;19.50;;
73850;SDS011;62190;51.548;5.688;2023-03-03T06:07:36;52.17;;;20.15;;
73850;SDS011;62190;51.548;5.688;2023-03-03T06:10:03;58.40;;;19.40;;
73850;SDS011;62190;51.548;5.688;2023-03-03T06:12:31;57.95;;;20.57;;
73850;SDS011;62190;51.548;5.688;2023-03-03T06:14:58;60.05;;;21.12;;
73850;SDS011;62190;51.548;5.688;2023-03-03T06:17:26;59.77;;;20.43;;
73850;SDS011;62190;51.548;5.688;2023-03-03T06:19:53;53.90;;;21.33;;
73850;SDS011;62190;51.548;5.688;2023-03-03T06:22:20;56.70;;;20.10;;
73850;SDS011;62190;51.548;5.688;2023-03-03T06:24:47;56.88;;;21.73;;
73850;SDS011;62190;51.548;5.688;2023-03-03T06:27:17;41.90;;;14.87;;
73850;SDS011;62190;51.548;5.688;2023-03-03T06:29:44;43.70;;;16.75;;
73850;SDS011;62190;51.548;5.688;2023-03-03T06:32:12;53.48;;;16.93;;
73850;SDS011;62190;51.548;5.688;2023-03-03T06:34:39;45.40;;;17.55;;
73850;SDS011;62190;51.548;5.688;2023-03-03T06:37:07;46.42;;;17.40;;
73850;SDS011;62190;51.548;5.688;2023-03-03T06:39:34;42.27;;;17.32;;
73850;SDS011;62190;51.548;5.688;2023-03-03T06:42:01;41.98;;;17.30;;
73850;SDS011;62190;51.548;5.688;2023-03-03T06:44:28;47.53;;;17.98;;
73850;SDS011;62190;51.548;5.688;2023-03-03T06:46:56;49.27;;;17.50;;
73850;SDS011;62190;51.548;5.688;2023-03-03T06:49:23;43.20;;;18.65;;
73850;SDS011;62190;51.548;5.688;2023-03-03T06:51:50;46.68;;;16.17;;
73850;SDS011;62190;51.548;5.688;2023-03-03T06:54:19;48.73;;;19.40;;
73850;SDS011;62190;51.548;5.688;2023-03-03T06:56:48;43.85;;;16.87;;
73850;SDS011;62190;51.548;5.688;2023-03-03T06:59:19;52.35;;;18.80;;
73850;SDS011;62190;51.548;5.688;2023-03-03T07:01:47;79.03;;;26.82;;
73850;SDS011;62190;51.548;5.688;2023-03-03T07:04:20;85.35;;;28.10;;
73850;SDS011;62190;51.548;5.688;2023-03-03T07:06:56;46.25;;;17.80;;
73850;SDS011;62190;51.548;5.688;2023-03-03T07:09:25;45.33;;;17.30;;
73850;SDS011;62190;51.548;5.688;2023-03-03T07:11:59;44.73;;;17.82;;
73850;SDS011;62190;51.548;5.688;2023-03-03T07:14:23;43.50;;;17.02;;
73850;SDS011;62190;51.548;5.688;2023-03-03T07:16:51;44.93;;;17.02;;
73850;SDS011;62190;51.548;5.688;2023-03-03T07:19:27;43.40;;;17.27;;
73850;SDS011;62190;51.548;5.688;2023-03-03T07:21:56;42.48;;;18.32;;
73850;SDS011;62190;51.548;5.688;2023-03-03T07:24:25;46.75;;;18.37;;
73850;SDS011;62190;51.548;5.688;2023-03-03T07:29:41;44.03;;;17.48;;
73850;SDS011;62190;51.548;5.688;2023-03-03T07:32:51;40.38;;;16.75;;
73850;SDS011;62190;51.548;5.688;2023-03-03T07:35:00;41.75;;;17.23;;
73850;SDS011;62190;51.548;5.688;2023-03-03T07:40:38;46.10;;;17.73;;
73850;SDS011;62190;51.548;5.688;2023-03-03T07:42:55;46.08;;;17.07;;
73850;SDS011;62190;51.548;5.688;2023-03-03T07:45:27;49.20;;;17.73;;
73850;SDS011;62190;51.548;5.688;2023-03-03T07:48:00;43.98;;;17.92;;
73850;SDS011;62190;51.548;5.688;2023-03-03T07:50:28;42.98;;;18.90;;
73850;SDS011;62190;51.548;5.688;2023-03-03T07:52:57;43.17;;;18.25;;
73850;SDS011;62190;51.548;5.688;2023-03-03T07:55:32;41.23;;;17.17;;
73850;SDS011;62190;51.548;5.688;2023-03-03T08:03:23;44.98;;;18.05;;
73850;SDS011;62190;51.548;5.688;2023-03-03T08:05:52;45.25;;;18.17;;
73850;SDS011;62190;51.548;5.688;2023-03-03T08:08:29;40.45;;;16.05;;
73850;SDS011;62190;51.548;5.688;2023-03-03T08:11:02;45.28;;;17.35;;
73850;SDS011;62190;51.548;5.688;2023-03-03T08:21:18;42.30;;;16.97;;
73850;SDS011;62190;51.548;5.688;2023-03-03T08:23:47;35.40;;;15.98;;
73850;SDS011;62190;51.548;5.688;2023-03-03T08:26:20;38.17;;;16.95;;
73850;SDS011;62190;51.548;5.688;2023-03-03T08:28:48;41.15;;;17.23;;
73850;SDS011;62190;51.548;5.688;2023-03-03T08:31:15;39.60;;;18.30;;
73850;SDS011;62190;51.548;5.688;2023-03-03T08:33:43;40.50;;;16.70;;
73850;SDS011;62190;51.548;5.688;2023-03-03T08:36:11;35.75;;;16.48;;
73850;SDS011;62190;51.548;5.688;2023-03-03T08:38:39;38.05;;;16.60;;
73850;SDS011;62190;51.548;5.688;2023-03-03T08:41:07;41.55;;;18.05;;
73850;SDS011;62190;51.548;5.688;2023-03-03T08:43:34;39.55;;;16.77;;
73850;SDS011;62190;51.548;5.688;2023-03-03T08:46:02;39.33;;;14.40;;
73850;SDS011;62190;51.548;5.688;2023-03-03T08:48:30;36.83;;;14.53;;
73850;SDS011;62190;51.548;5.688;2023-03-03T08:50:58;31.95;;;14.63;;
73850;SDS011;62190;51.548;5.688;2023-03-03T08:53:26;37.70;;;14.40;;
73850;SDS011;62190;51.548;5.688;2023-03-03T08:55:53;31.62;;;15.15;;
73850;SDS011;62190;51.548;5.688;2023-03-03T08:58:20;27.35;;;12.33;;
73850;SDS011;62190;51.548;5.688;2023-03-03T09:00:48;28.67;;;12.63;;
73850;SDS011;62190;51.548;5.688;2023-03-03T09:03:15;32.67;;;13.28;;
73850;SDS011;62190;51.548;5.688;2023-03-03T09:05:43;32.85;;;13.40;;
73850;SDS011;62190;51.548;5.688;2023-03-03T09:08:10;33.92;;;13.83;;
73850;SDS011;62190;51.548;5.688;2023-03-03T09:10:39;30.45;;;13.08;;
73850;SDS011;62190;51.548;5.688;2023-03-03T09:13:10;30.92;;;14.35;;
73850;SDS011;62190;51.548;5.688;2023-03-03T09:15:45;32.48;;;14.23;;
73850;SDS011;62190;51.548;5.688;2023-03-03T09:18:19;28.15;;;12.07;;
73850;SDS011;62190;51.548;5.688;2023-03-03T09:20:48;26.75;;;12.07;;
73850;SDS011;62190;51.548;5.688;2023-03-03T09:28:45;24.82;;;11.48;;
73850;SDS011;62190;51.548;5.688;2023-03-03T09:31:26;24.12;;;9.93;;
73850;SDS011;62190;51.548;5.688;2023-03-03T09:33:55;24.07;;;11.70;;
73850;SDS011;62190;51.548;5.688;2023-03-03T09:36:27;26.95;;;12.33;;
73850;SDS011;62190;51.548;5.688;2023-03-03T09:38:56;27.32;;;12.63;;
73850;SDS011;62190;51.548;5.688;2023-03-03T09:52:50;31.60;;;12.10;;
73850;SDS011;62190;51.548;5.688;2023-03-03T09:55:28;28.98;;;12.73;;
73850;SDS011;62190;51.548;5.688;2023-03-03T09:58:08;26.95;;;12.58;;
73850;SDS011;62190;51.548;5.688;2023-03-03T10:06:47;25.95;;;12.53;;
73850;SDS011;62190;51.548;5.688;2023-03-03T10:10:02;26.30;;;11.68;;
73850;SDS011;62190;51.548;5.688;2023-03-03T10:12:07;28.60;;;13.62;;
73850;SDS011;62190;51.548;5.688;2023-03-03T10:14:50;27.40;;;12.37;;
73850;SDS011;62190;51.548;5.688;2023-03-03T10:23:20;24.83;;;11.13;;
73850;SDS011;62190;51.548;5.688;2023-03-03T10:31:57;23.02;;;9.95;;
73850;SDS011;62190;51.548;5.688;2023-03-03T10:34:21;22.50;;;9.93;;
73850;SDS011;62190;51.548;5.688;2023-03-03T10:36:55;20.50;;;10.35;;
73850;SDS011;62190;51.548;5.688;2023-03-03T10:45:32;22.80;;;9.88;;
73850;SDS011;62190;51.548;5.688;2023-03-03T10:48:15;21.57;;;10.50;;
73850;SDS011;62190;51.548;5.688;2023-03-03T10:53:26;17.17;;;8.98;;
73850;SDS011;62190;51.548;5.688;2023-03-03T10:56:04;20.05;;;8.05;;
73850;SDS011;62190;51.548;5.688;2023-03-03T11:01:33;18.17;;;9.48;;
73850;SDS011;62190;51.548;5.688;2023-03-03T11:06:32;18.55;;;8.90;;
73850;SDS011;62190;51.548;5.688;2023-03-03T11:12:13;20.77;;;9.60;;
73850;SDS011;62190;51.548;5.688;2023-03-03T11:15:05;24.45;;;10.25;;
73850;SDS011;62190;51.548;5.688;2023-03-03T11:26:30;20.70;;;9.58;;
73850;SDS011;62190;51.548;5.688;2023-03-03T11:29:03;20.62;;;11.25;;
73850;SDS011;62190;51.548;5.688;2023-03-03T11:31:37;15.15;;;7.92;;
73850;SDS011;62190;51.548;5.688;2023-03-03T11:37:17;16.35;;;8.10;;
73850;SDS011;62190;51.548;5.688;2023-03-03T11:39:53;21.42;;;9.33;;
73850;SDS011;62190;51.548;5.688;2023-03-03T11:42:25;18.95;;;8.53;;
73850;SDS011;62190;51.548;5.688;2023-03-03T11:45:18;19.67;;;9.48;;
73850;SDS011;62190;51.548;5.688;2023-03-03T11:50:38;21.80;;;11.10;;
73850;SDS011;62190;51.548;5.688;2023-03-03T11:53:20;21.25;;;10.08;;
73850;SDS011;62190;51.548;5.688;2023-03-03T11:55:35;21.65;;;10.32;;
73850;SDS011;62190;51.548;5.688;2023-03-03T11:58:21;21.40;;;11.38;;
73850;SDS011;62190;51.548;5.688;2023-03-03T12:01:01;21.68;;;11.25;;
73850;SDS011;62190;51.548;5.688;2023-03-03T12:03:37;19.32;;;9.90;;
73850;SDS011;62190;51.548;5.688;2023-03-03T12:12:06;17.02;;;9.48;;
73850;SDS011;62190;51.548;5.688;2023-03-03T12:17:27;21.40;;;10.93;;
73850;SDS011;62190;51.548;5.688;2023-03-03T12:20:17;20.23;;;10.65;;
73850;SDS011;62190;51.548;5.688;2023-03-03T12:23:01;18.75;;;9.43;;
73850;SDS011;62190;51.548;5.688;2023-03-03T12:28:39;20.92;;;9.75;;
73850;SDS011;62190;51.548;5.688;2023-03-03T12:33:56;22.50;;;10.03;;
73850;SDS011;62190;51.548;5.688;2023-03-03T12:42:51;19.35;;;9.08;;
73850;SDS011;62190;51.548;5.688;2023-03-03T12:44:34;20.12;;;10.10;;
73850;SDS011;62190;51.548;5.688;2023-03-03T12:52:53;20.35;;;10.18;;
73850;SDS011;62190;51.548;5.688;2023-03-03T12:55:37;18.25;;;9.25;;
73850;SDS011;62190;51.548;5.688;2023-03-03T12:58:26;16.40;;;9.30;;
73850;SDS011;62190;51.548;5.688;2023-03-03T13:01:32;19.48;;;10.40;;
73850;SDS011;62190;51.548;5.688;2023-03-03T13:09:32;17.52;;;9.23;;
73850;SDS011;62190;51.548;5.688;2023-03-03T13:15:19;20.75;;;10.13;;
73850;SDS011;62190;51.548;5.688;2023-03-03T13:23:18;16.20;;;9.05;;
73850;SDS011;62190;51.548;5.688;2023-03-03T13:25:50;16.12;;;7.30;;
73850;SDS011;62190;51.548;5.688;2023-03-03T13:31:09;17.70;;;9.50;;
73850;SDS011;62190;51.548;5.688;2023-03-03T13:33:41;16.15;;;8.60;;
73850;SDS011;62190;51.548;5.688;2023-03-03T13:36:12;13.65;;;7.40;;
73850;SDS011;62190;51.548;5.688;2023-03-03T13:38:41;17.48;;;8.85;;
73850;SDS011;62190;51.548;5.688;2023-03-03T13:41:37;14.98;;;7.65;;
73850;SDS011;62190;51.548;5.688;2023-03-03T13:44:05;14.65;;;7.72;;
73850;SDS011;62190;51.548;5.688;2023-03-03T13:49:47;16.95;;;7.95;;
73850;SDS011;62190;51.548;5.688;2023-03-03T13:52:28;14.25;;;8.10;;
73850;SDS011;62190;51.548;5.688;2023-03-03T14:00:50;17.37;;;8.63;;
73850;SDS011;62190;51.548;5.688;2023-03-03T14:06:26;17.17;;;7.65;;
73850;SDS011;62190;51.548;5.688;2023-03-03T14:09:07;15.53;;;8.45;;
73850;SDS011;62190;51.548;5.688;2023-03-03T14:11:44;13.20;;;6.95;;
73850;SDS011;62190;51.548;5.688;2023-03-03T14:17:14;16.85;;;8.03;;
73850;SDS011;62190;51.548;5.688;2023-03-03T14:19:46;16.35;;;6.95;;
73850;SDS011;62190;51.548;5.688;2023-03-03T14:22:17;13.83;;;7.62;;
73850;SDS011;62190;51.548;5.688;2023-03-03T14:27:52;11.73;;;6.47;;
73850;SDS011;62190;51.548;5.688;2023-03-03T14:30:33;12.18;;;6.25;;
73850;SDS011;62190;51.548;5.688;2023-03-03T14:35:39;10.72;;;6.28;;
73850;SDS011;62190;51.548;5.688;2023-03-03T14:38:11;13.53;;;6.20;;
73850;SDS011;62190;51.548;5.688;2023-03-03T14:40:39;11.70;;;5.70;;
73850;SDS011;62190;51.548;5.688;2023-03-03T14:43:23;11.05;;;5.12;;
73850;SDS011;62190;51.548;5.688;2023-03-03T14:45:53;9.93;;;4.65;;
73850;SDS011;62190;51.548;5.688;2023-03-03T14:48:24;9.73;;;5.72;;
73850;SDS011;62190;51.548;5.688;2023-03-03T14:50:55;9.55;;;4.80;;
73850;SDS011;62190;51.548;5.688;2023-03-03T14:53:30;14.28;;;5.83;;
73850;SDS011;62190;51.548;5.688;2023-03-03T14:56:14;11.20;;;5.70;;
73850;SDS011;62190;51.548;5.688;2023-03-03T14:58:45;8.23;;;5.08;;
73850;SDS011;62190;51.548;5.688;2023-03-03T15:01:14;8.80;;;4.87;;
73850;SDS011;62190;51.548;5.688;2023-03-03T15:03:47;8.55;;;4.20;;
73850;SDS011;62190;51.548;5.688;2023-03-03T15:06:30;8.15;;;4.50;;
73850;SDS011;62190;51.548;5.688;2023-03-03T15:09:23;10.43;;;4.53;;
73850;SDS011;62190;51.548;5.688;2023-03-03T15:11:54;11.10;;;5.65;;
73850;SDS011;62190;51.548;5.688;2023-03-03T15:14:36;8.85;;;4.37;;
73850;SDS011;62190;51.548;5.688;2023-03-03T15:19:58;7.78;;;3.83;;
73850;SDS011;62190;51.548;5.688;2023-03-03T15:30:47;9.20;;;4.47;;
73850;SDS011;62190;51.548;5.688;2023-03-03T15:33:31;7.00;;;3.67;;
73850;SDS011;62190;51.548;5.688;2023-03-03T15:36:15;8.08;;;4.35;;
73850;SDS011;62190;51.548;5.688;2023-03-03T15:41:35;9.10;;;3.80;;
73850;SDS011;62190;51.548;5.688;2023-03-03T16:01:05;6.70;;;3.33;;
73850;SDS011;62190;51.548;5.688;2023-03-03T16:03:42;6.30;;;3.15;;
73850;SDS011;62190;51.548;5.688;2023-03-03T16:06:19;5.95;;;3.30;;
73850;SDS011;62190;51.548;5.688;2023-03-03T16:08:51;7.97;;;2.80;;
73850;SDS011;62190;51.548;5.688;2023-03-03T16:16:34;8.33;;;3.27;;
73850;SDS011;62190;51.548;5.688;2023-03-03T16:19:12;7.85;;;3.65;;
73850;SDS011;62190;51.548;5.688;2023-03-03T16:26:58;8.95;;;3.85;;
73850;SDS011;62190;51.548;5.688;2023-03-03T16:29:58;5.55;;;3.50;;
73850;SDS011;62190;51.548;5.688;2023-03-03T16:32:39;5.28;;;3.35;;
73850;SDS011;62190;51.548;5.688;2023-03-03T16:37:58;7.80;;;3.52;;
73850;SDS011;62190;51.548;5.688;2023-03-03T16:43:02;6.85;;;2.95;;
73850;SDS011;62190;51.548;5.688;2023-03-03T16:45:34;5.60;;;3.42;;
73850;SDS011;62190;51.548;5.688;2023-03-03T16:48:09;6.62;;;3.00;;
73850;SDS011;62190;51.548;5.688;2023-03-03T16:56:13;5.20;;;2.42;;
73850;SDS011;62190;51.548;5.688;2023-03-03T16:58:43;5.40;;;2.80;;
73850;SDS011;62190;51.548;5.688;2023-03-03T17:05:12;5.05;;;1.75;;
73850;SDS011;62190;51.548;5.688;2023-03-03T17:10:48;2.75;;;1.47;;
73850;SDS011;62190;51.548;5.688;2023-03-03T17:15:22;7.28;;;2.00;;
73850;SDS011;62190;51.548;5.688;2023-03-03T17:18:04;6.17;;;2.17;;
73850;SDS011;62190;51.548;5.688;2023-03-03T17:20:40;7.50;;;2.12;;
73850;SDS011;62190;51.548;5.688;2023-03-03T17:37:39;6.00;;;2.30;;
73850;SDS011;62190;51.548;5.688;2023-03-03T17:43:16;4.50;;;2.30;;
73850;SDS011;62190;51.548;5.688;2023-03-03T17:45:45;4.92;;;1.67;;
73850;SDS011;62190;51.548;5.688;2023-03-03T17:48:34;4.97;;;2.27;;
73850;SDS011;62190;51.548;5.688;2023-03-03T17:54:04;4.85;;;2.95;;
73850;SDS011;62190;51.548;5.688;2023-03-03T17:56:38;7.58;;;2.22;;
73850;SDS011;62190;51.548;5.688;2023-03-03T17:59:14;2.92;;;1.85;;
73850;SDS011;62190;51.548;5.688;2023-03-03T18:01:56;3.70;;;1.67;;
73850;SDS011;62190;51.548;5.688;2023-03-03T18:10:28;6.00;;;2.15;;
73850;SDS011;62190;51.548;5.688;2023-03-03T18:21:23;3.50;;;2.17;;
73850;SDS011;62190;51.548;5.688;2023-03-03T18:26:46;6.50;;;1.90;;
73850;SDS011;62190;51.548;5.688;2023-03-03T18:29:20;3.52;;;1.92;;
73850;SDS011;62190;51.548;5.688;2023-03-03T18:31:48;5.30;;;2.35;;
73850;SDS011;62190;51.548;5.688;2023-03-03T18:36:57;4.65;;;2.35;;
73850;SDS011;62190;51.548;5.688;2023-03-03T18:39:36;7.55;;;2.83;;
73850;SDS011;62190;51.548;5.688;2023-03-03T18:50:36;5.87;;;2.15;;
73850;SDS011;62190;51.548;5.688;2023-03-03T18:53:14;6.50;;;2.77;;
73850;SDS011;62190;51.548;5.688;2023-03-03T18:55:46;5.78;;;2.70;;
73850;SDS011;62190;51.548;5.688;2023-03-03T19:00:54;6.22;;;2.33;;
73850;SDS011;62190;51.548;5.688;2023-03-03T19:06:07;6.80;;;2.92;;
73850;SDS011;62190;51.548;5.688;2023-03-03T19:08:51;5.03;;;2.25;;
73850;SDS011;62190;51.548;5.688;2023-03-03T19:11:31;3.50;;;2.00;;
73850;SDS011;62190;51.548;5.688;2023-03-03T19:14:13;6.83;;;1.85;;
73850;SDS011;62190;51.548;5.688;2023-03-03T19:16:44;3.83;;;2.08;;
73850;SDS011;62190;51.548;5.688;2023-03-03T19:19:14;4.17;;;1.60;;
73850;SDS011;62190;51.548;5.688;2023-03-03T19:21:43;5.55;;;1.75;;
73850;SDS011;62190;51.548;5.688;2023-03-03T19:32:20;10.45;;;2.33;;
73850;SDS011;62190;51.548;5.688;2023-03-03T19:43:18;4.58;;;2.15;;
73850;SDS011;62190;51.548;5.688;2023-03-03T19:48:49;7.78;;;1.90;;
73850;SDS011;62190;51.548;5.688;2023-03-03T19:51:29;7.35;;;2.55;;
73850;SDS011;62190;51.548;5.688;2023-03-03T19:54:08;8.50;;;2.22;;